sensor_id;sensor_type;location;lat;lon;timestamp;pressure;altitude;pressure_sealevel;temperature;humidity
25232;BME280;13176;51.140;6.290;2022-09-27T00:01:00;98940.88;;;13.81;90.82
25232;BME280;13176;51.140;6.290;2022-09-27T00:03:28;98974.19;;;13.95;91.26
25232;BME280;13176;51.140;6.290;2022-09-27T00:09:05;98961.84;;;13.81;90.90
25232;BME280;13176;51.140;6.290;2022-09-27T00:11:35;98962.25;;;13.74;91.44
25232;BME280;13176;51.140;6.290;2022-09-27T00:14:02;98944.38;;;13.34;92.18
25232;BME280;13176;51.140;6.290;2022-09-27T00:16:31;98954.88;;;13.65;91.35
25232;BME280;13176;51.140;6.290;2022-09-27T00:19:04;98994.81;;;13.70;91.40
25232;BME280;13176;51.140;6.290;2022-09-27T00:21:31;98996.09;;;13.94;91.13
25232;BME280;13176;51.140;6.290;2022-09-27T00:23:57;98974.69;;;13.86;90.97
25232;BME280;13176;51.140;6.290;2022-09-27T00:26:25;98988.72;;;13.85;91.00
25232;BME280;13176;51.140;6.290;2022-09-27T00:28:51;98983.22;;;13.74;91.27
25232;BME280;13176;51.140;6.290;2022-09-27T00:31:19;99001.94;;;13.99;90.74
25232;BME280;13176;51.140;6.290;2022-09-27T00:33:48;98957.94;;;13.73;90.45
25232;BME280;13176;51.140;6.290;2022-09-27T00:36:15;98988.47;;;13.74;90.92
25232;BME280;13176;51.140;6.290;2022-09-27T00:38:42;99007.19;;;13.99;90.87
25232;BME280;13176;51.140;6.290;2022-09-27T00:41:14;98967.75;;;13.85;90.48
25232;BME280;13176;51.140;6.290;2022-09-27T00:43:47;98997.56;;;13.99;90.48
25232;BME280;13176;51.140;6.290;2022-09-27T00:46:21;98965.97;;;13.70;91.19
25232;BME280;13176;51.140;6.290;2022-09-27T00:48:56;98903.66;;;13.44;90.47
25232;BME280;13176;51.140;6.290;2022-09-27T00:51:26;99001.13;;;13.66;91.25
25232;BME280;13176;51.140;6.290;2022-09-27T00:53:54;98944.91;;;13.56;90.63
25232;BME280;13176;51.140;6.290;2022-09-27T00:56:25;99005.22;;;13.87;90.94
25232;BME280;13176;51.140;6.290;2022-09-27T00:58:57;98972.16;;;13.69;90.93
25232;BME280;13176;51.140;6.290;2022-09-27T01:01:25;98984.16;;;13.88;90.42
25232;BME280;13176;51.140;6.290;2022-09-27T01:04:08;99015.44;;;13.76;91.15
25232;BME280;13176;51.140;6.290;2022-09-27T01:06:35;99005.28;;;13.70;91.17
25232;BME280;13176;51.140;6.290;2022-09-27T01:09:07;99013.00;;;13.73;90.99
25232;BME280;13176;51.140;6.290;2022-09-27T01:20:17;99021.94;;;13.69;91.41
25232;BME280;13176;51.140;6.290;2022-09-27T01:23:13;98973.47;;;13.45;90.27
25232;BME280;13176;51.140;6.290;2022-09-27T01:36:15;99033.56;;;14.11;89.58
25232;BME280;13176;51.140;6.290;2022-09-27T01:39:01;99018.09;;;14.07;89.18
25232;BME280;13176;51.140;6.290;2022-09-27T01:41:45;98920.03;;;13.48;88.92
25232;BME280;13176;51.140;6.290;2022-09-27T01:44:34;99017.50;;;14.02;89.06
25232;BME280;13176;51.140;6.290;2022-09-27T01:47:16;99021.53;;;13.92;89.46
25232;BME280;13176;51.140;6.290;2022-09-27T01:49:53;99007.44;;;13.79;89.30
25232;BME280;13176;51.140;6.290;2022-09-27T01:52:26;99023.72;;;13.84;89.17
25232;BME280;13176;51.140;6.290;2022-09-27T01:54:58;98981.09;;;13.65;89.39
25232;BME280;13176;51.140;6.290;2022-09-27T01:57:31;99010.03;;;13.64;89.78
25232;BME280;13176;51.140;6.290;2022-09-27T02:00:02;99018.47;;;13.68;89.28
25232;BME280;13176;51.140;6.290;2022-09-27T02:02:32;98992.00;;;13.58;88.74
25232;BME280;13176;51.140;6.290;2022-09-27T02:05:01;99037.66;;;13.69;89.41
25232;BME280;13176;51.140;6.290;2022-09-27T02:07:36;99034.72;;;13.75;88.87
25232;BME280;13176;51.140;6.290;2022-09-27T02:10:06;99035.06;;;13.52;89.13
25232;BME280;13176;51.140;6.290;2022-09-27T02:12:51;99038.09;;;13.62;89.06
25232;BME280;13176;51.140;6.290;2022-09-27T02:15:20;99003.63;;;13.52;88.69
25232;BME280;13176;51.140;6.290;2022-09-27T02:17:55;99003.84;;;13.32;89.29
25232;BME280;13176;51.140;6.290;2022-09-27T02:20:31;99041.53;;;13.62;88.55
25232;BME280;13176;51.140;6.290;2022-09-27T02:23:13;99038.44;;;13.71;88.07
25232;BME280;13176;51.140;6.290;2022-09-27T02:25:50;99020.53;;;13.47;88.12
25232;BME280;13176;51.140;6.290;2022-09-27T02:28:33;99018.94;;;13.44;88.11
25232;BME280;13176;51.140;6.290;2022-09-27T02:31:02;98985.38;;;13.18;87.33
25232;BME280;13176;51.140;6.290;2022-09-27T02:33:39;99032.97;;;13.26;88.48
25232;BME280;13176;51.140;6.290;2022-09-27T02:36:09;99052.06;;;13.45;87.48
25232;BME280;13176;51.140;6.290;2022-09-27T02:38:36;98915.19;;;12.58;87.78
25232;BME280;13176;51.140;6.290;2022-09-27T02:41:17;99052.84;;;13.30;88.02
25232;BME280;13176;51.140;6.290;2022-09-27T02:43:46;99072.53;;;13.54;87.96
25232;BME280;13176;51.140;6.290;2022-09-27T03:00:47;99041.78;;;13.08;88.11
25232;BME280;13176;51.140;6.290;2022-09-27T03:03:25;99081.19;;;13.39;88.24
25232;BME280;13176;51.140;6.290;2022-09-27T03:06:00;99071.34;;;13.27;88.03
25232;BME280;13176;51.140;6.290;2022-09-27T03:08:28;99100.22;;;13.43;87.97
25232;BME280;13176;51.140;6.290;2022-09-27T03:10:55;98963.38;;;12.71;88.04
25232;BME280;13176;51.140;6.290;2022-09-27T03:13:21;98990.34;;;12.90;87.29
25232;BME280;13176;51.140;6.290;2022-09-27T03:15:47;99075.97;;;13.22;87.98
25232;BME280;13176;51.140;6.290;2022-09-27T03:18:16;99043.88;;;12.83;87.96
25232;BME280;13176;51.140;6.290;2022-09-27T03:20:42;99047.47;;;12.99;87.95
25232;BME280;13176;51.140;6.290;2022-09-27T03:23:09;99037.72;;;12.84;88.09
25232;BME280;13176;51.140;6.290;2022-09-27T03:25:35;99041.38;;;12.99;87.58
25232;BME280;13176;51.140;6.290;2022-09-27T03:28:02;99075.44;;;13.16;87.02
25232;BME280;13176;51.140;6.290;2022-09-27T03:30:28;99064.41;;;13.09;87.09
25232;BME280;13176;51.140;6.290;2022-09-27T03:32:55;99064.84;;;13.17;87.17
25232;BME280;13176;51.140;6.290;2022-09-27T03:35:21;99059.94;;;12.94;87.01
25232;BME280;13176;51.140;6.290;2022-09-27T03:37:47;99079.50;;;13.21;86.96
25232;BME280;13176;51.140;6.290;2022-09-27T03:40:14;99080.56;;;13.17;86.41
25232;BME280;13176;51.140;6.290;2022-09-27T03:42:41;99070.19;;;13.16;86.44
25232;BME280;13176;51.140;6.290;2022-09-27T03:45:14;99040.16;;;13.06;86.08
25232;BME280;13176;51.140;6.290;2022-09-27T03:47:40;99080.38;;;13.22;85.32
25232;BME280;13176;51.140;6.290;2022-09-27T03:50:08;98956.09;;;12.43;85.64
25232;BME280;13176;51.140;6.290;2022-09-27T03:52:36;99074.91;;;13.09;85.90
25232;BME280;13176;51.140;6.290;2022-09-27T03:55:03;99089.06;;;13.05;86.03
25232;BME280;13176;51.140;6.290;2022-09-27T03:57:29;99088.91;;;13.08;86.14
25232;BME280;13176;51.140;6.290;2022-09-27T03:59:57;99071.81;;;13.01;85.44
25232;BME280;13176;51.140;6.290;2022-09-27T04:02:25;99104.31;;;13.31;85.90
25232;BME280;13176;51.140;6.290;2022-09-27T04:04:52;99037.56;;;12.87;85.73
25232;BME280;13176;51.140;6.290;2022-09-27T04:07:19;99045.25;;;12.92;85.38
25232;BME280;13176;51.140;6.290;2022-09-27T04:09:45;99073.03;;;13.11;86.07
25232;BME280;13176;51.140;6.290;2022-09-27T04:12:12;99071.34;;;12.93;86.09
25232;BME280;13176;51.140;6.290;2022-09-27T04:14:38;99048.69;;;12.92;85.75
25232;BME280;13176;51.140;6.290;2022-09-27T04:17:05;99047.22;;;12.87;85.84
25232;BME280;13176;51.140;6.290;2022-09-27T04:19:31;99069.25;;;13.17;85.26
25232;BME280;13176;51.140;6.290;2022-09-27T04:21:58;99039.16;;;12.91;85.07
25232;BME280;13176;51.140;6.290;2022-09-27T04:24:24;99067.41;;;13.02;85.29
25232;BME280;13176;51.140;6.290;2022-09-27T04:26:50;99069.72;;;12.91;85.00
25232;BME280;13176;51.140;6.290;2022-09-27T04:29:17;99076.03;;;13.04;85.26
25232;BME280;13176;51.140;6.290;2022-09-27T04:31:43;98918.63;;;12.08;84.64
25232;BME280;13176;51.140;6.290;2022-09-27T04:34:10;99099.69;;;13.02;85.35
25232;BME280;13176;51.140;6.290;2022-09-27T04:36:36;99071.44;;;12.73;85.82
25232;BME280;13176;51.140;6.290;2022-09-27T04:39:07;99087.81;;;12.95;85.08
25232;BME280;13176;51.140;6.290;2022-09-27T04:41:34;99065.44;;;12.71;84.71
25232;BME280;13176;51.140;6.290;2022-09-27T04:44:01;99078.69;;;12.85;84.76
25232;BME280;13176;51.140;6.290;2022-09-27T04:46:28;99077.59;;;12.89;84.24
25232;BME280;13176;51.140;6.290;2022-09-27T04:48:58;99091.50;;;12.91;84.13
25232;BME280;13176;51.140;6.290;2022-09-27T04:51:25;99067.44;;;12.83;83.98
25232;BME280;13176;51.140;6.290;2022-09-27T04:53:52;99057.59;;;12.71;84.16
25232;BME280;13176;51.140;6.290;2022-09-27T04:56:18;99036.84;;;12.50;83.72
25232;BME280;13176;51.140;6.290;2022-09-27T04:58:45;99112.56;;;12.88;83.67
25232;BME280;13176;51.140;6.290;2022-09-27T05:01:11;99090.22;;;12.81;83.65
25232;BME280;13176;51.140;6.290;2022-09-27T05:03:38;99044.97;;;12.44;83.47
25232;BME280;13176;51.140;6.290;2022-09-27T05:06:04;99056.00;;;12.50;83.29
25232;BME280;13176;51.140;6.290;2022-09-27T05:08:31;99088.28;;;12.49;83.64
25232;BME280;13176;51.140;6.290;2022-09-27T05:10:57;99084.22;;;12.26;84.63
25232;BME280;13176;51.140;6.290;2022-09-27T05:13:25;99092.44;;;12.37;84.29
25232;BME280;13176;51.140;6.290;2022-09-27T05:15:51;99100.16;;;12.56;83.29
25232;BME280;13176;51.140;6.290;2022-09-27T05:18:17;99131.31;;;12.79;82.89
25232;BME280;13176;51.140;6.290;2022-09-27T05:20:44;99149.78;;;12.95;82.82
25232;BME280;13176;51.140;6.290;2022-09-27T05:23:10;99143.41;;;13.00;82.56
25232;BME280;13176;51.140;6.290;2022-09-27T05:25:37;99112.06;;;12.63;82.87
25232;BME280;13176;51.140;6.290;2022-09-27T05:28:04;99145.69;;;12.71;82.93
25232;BME280;13176;51.140;6.290;2022-09-27T05:30:30;99125.00;;;12.83;82.52
25232;BME280;13176;51.140;6.290;2022-09-27T05:32:57;99143.97;;;12.88;82.37
25232;BME280;13176;51.140;6.290;2022-09-27T05:35:23;99104.84;;;12.68;81.88
25232;BME280;13176;51.140;6.290;2022-09-27T05:37:54;99131.69;;;12.90;81.72
25232;BME280;13176;51.140;6.290;2022-09-27T05:40:21;99123.94;;;12.70;82.38
25232;BME280;13176;51.140;6.290;2022-09-27T05:43:06;99144.88;;;12.87;82.48
25232;BME280;13176;51.140;6.290;2022-09-27T05:45:33;99144.06;;;12.87;82.17
25232;BME280;13176;51.140;6.290;2022-09-27T05:47:59;99080.94;;;12.57;81.97
25232;BME280;13176;51.140;6.290;2022-09-27T05:50:26;99134.66;;;12.83;82.53
25232;BME280;13176;51.140;6.290;2022-09-27T05:52:53;99150.19;;;13.04;82.17
25232;BME280;13176;51.140;6.290;2022-09-27T05:55:20;99111.75;;;12.69;81.60
25232;BME280;13176;51.140;6.290;2022-09-27T05:57:54;99125.16;;;12.80;81.96
25232;BME280;13176;51.140;6.290;2022-09-27T06:00:23;99126.22;;;12.76;81.75
25232;BME280;13176;51.140;6.290;2022-09-27T06:02:55;99152.75;;;12.87;82.68
25232;BME280;13176;51.140;6.290;2022-09-27T06:05:23;99156.56;;;12.99;82.39
25232;BME280;13176;51.140;6.290;2022-09-27T06:07:51;99096.78;;;12.54;82.56
25232;BME280;13176;51.140;6.290;2022-09-27T06:10:18;99152.75;;;12.87;82.60
25232;BME280;13176;51.140;6.290;2022-09-27T06:12:45;99134.41;;;12.70;82.22
25232;BME280;13176;51.140;6.290;2022-09-27T06:15:11;99153.50;;;12.72;83.07
25232;BME280;13176;51.140;6.290;2022-09-27T06:17:38;99111.19;;;12.45;82.90
25232;BME280;13176;51.140;6.290;2022-09-27T06:20:04;99141.44;;;12.87;82.09
25232;BME280;13176;51.140;6.290;2022-09-27T06:22:31;99144.53;;;12.76;82.51
25232;BME280;13176;51.140;6.290;2022-09-27T06:24:57;99081.66;;;12.43;82.16
25232;BME280;13176;51.140;6.290;2022-09-27T06:27:23;99159.81;;;12.85;82.48
25232;BME280;13176;51.140;6.290;2022-09-27T06:29:51;99154.59;;;12.85;82.02
25232;BME280;13176;51.140;6.290;2022-09-27T06:32:17;99090.56;;;12.39;81.72
25232;BME280;13176;51.140;6.290;2022-09-27T06:34:44;99129.59;;;12.61;82.34
25232;BME280;13176;51.140;6.290;2022-09-27T06:37:11;99115.97;;;12.37;82.48
25232;BME280;13176;51.140;6.290;2022-09-27T06:39:37;99144.00;;;12.51;82.39
25232;BME280;13176;51.140;6.290;2022-09-27T06:42:03;99141.22;;;12.38;82.64
25232;BME280;13176;51.140;6.290;2022-09-27T06:44:30;99143.81;;;12.56;82.51
25232;BME280;13176;51.140;6.290;2022-09-27T06:46:56;99120.47;;;12.51;81.95
25232;BME280;13176;51.140;6.290;2022-09-27T06:49:23;99159.94;;;12.65;82.56
25232;BME280;13176;51.140;6.290;2022-09-27T06:51:50;99180.75;;;12.85;82.08
25232;BME280;13176;51.140;6.290;2022-09-27T06:54:17;99096.53;;;12.24;83.35
25232;BME280;13176;51.140;6.290;2022-09-27T06:56:47;99144.56;;;12.21;84.38
25232;BME280;13176;51.140;6.290;2022-09-27T06:59:13;99165.34;;;12.24;84.96
25232;BME280;13176;51.140;6.290;2022-09-27T07:01:59;99172.00;;;12.49;84.28
25232;BME280;13176;51.140;6.290;2022-09-27T07:04:25;99125.66;;;12.16;83.84
25232;BME280;13176;51.140;6.290;2022-09-27T07:06:51;99127.03;;;12.42;83.65
25232;BME280;13176;51.140;6.290;2022-09-27T07:09:18;99161.41;;;12.52;83.98
25232;BME280;13176;51.140;6.290;2022-09-27T07:11:45;99148.53;;;12.30;84.12
25232;BME280;13176;51.140;6.290;2022-09-27T07:14:11;99168.97;;;12.58;83.89
25232;BME280;13176;51.140;6.290;2022-09-27T07:16:37;99184.88;;;12.72;84.09
25232;BME280;13176;51.140;6.290;2022-09-27T07:19:04;99212.31;;;12.82;83.67
25232;BME280;13176;51.140;6.290;2022-09-27T07:21:32;99210.22;;;12.90;83.51
25232;BME280;13176;51.140;6.290;2022-09-27T07:23:59;99197.47;;;12.83;83.26
25232;BME280;13176;51.140;6.290;2022-09-27T07:26:25;99171.97;;;12.86;83.36
25232;BME280;13176;51.140;6.290;2022-09-27T07:28:52;99103.03;;;12.34;82.74
25232;BME280;13176;51.140;6.290;2022-09-27T07:31:19;99183.91;;;12.93;82.89
25232;BME280;13176;51.140;6.290;2022-09-27T07:33:45;99148.69;;;12.63;83.14
25232;BME280;13176;51.140;6.290;2022-09-27T07:36:12;99218.94;;;13.26;82.41
25232;BME280;13176;51.140;6.290;2022-09-27T07:38:39;99185.78;;;13.08;81.83
25232;BME280;13176;51.140;6.290;2022-09-27T07:41:07;99102.00;;;12.54;81.83
25232;BME280;13176;51.140;6.290;2022-09-27T07:43:34;99196.63;;;13.01;82.07
25232;BME280;13176;51.140;6.290;2022-09-27T07:46:00;99188.84;;;12.99;81.81
25232;BME280;13176;51.140;6.290;2022-09-27T07:48:27;99198.06;;;13.25;81.56
25232;BME280;13176;51.140;6.290;2022-09-27T07:50:53;99206.28;;;13.17;81.05
25232;BME280;13176;51.140;6.290;2022-09-27T07:53:19;99147.78;;;12.81;80.73
25232;BME280;13176;51.140;6.290;2022-09-27T07:55:52;99178.16;;;13.04;80.88
25232;BME280;13176;51.140;6.290;2022-09-27T07:58:19;99237.97;;;13.30;80.67
25232;BME280;13176;51.140;6.290;2022-09-27T08:00:47;99205.34;;;13.18;80.05
25232;BME280;13176;51.140;6.290;2022-09-27T08:03:15;99220.94;;;13.21;80.39
25232;BME280;13176;51.140;6.290;2022-09-27T08:05:44;99198.22;;;13.22;80.36
25232;BME280;13176;51.140;6.290;2022-09-27T08:08:13;99173.78;;;13.21;80.00
25232;BME280;13176;51.140;6.290;2022-09-27T08:10:40;99245.72;;;13.66;80.26
25232;BME280;13176;51.140;6.290;2022-09-27T08:13:10;99243.97;;;13.67;79.82
25232;BME280;13176;51.140;6.290;2022-09-27T08:15:38;99215.78;;;13.37;80.31
25232;BME280;13176;51.140;6.290;2022-09-27T08:18:05;99211.75;;;13.65;79.92
25232;BME280;13176;51.140;6.290;2022-09-27T08:20:32;99197.09;;;13.44;80.28
25232;BME280;13176;51.140;6.290;2022-09-27T08:22:59;99230.91;;;13.65;79.90
25232;BME280;13176;51.140;6.290;2022-09-27T08:25:25;99213.75;;;13.60;79.55
25232;BME280;13176;51.140;6.290;2022-09-27T08:27:55;99235.41;;;13.64;79.53
25232;BME280;13176;51.140;6.290;2022-09-27T08:30:22;99229.16;;;13.66;79.74
25232;BME280;13176;51.140;6.290;2022-09-27T08:32:48;99202.38;;;13.26;79.44
25232;BME280;13176;51.140;6.290;2022-09-27T08:35:15;99231.53;;;13.54;79.58
25232;BME280;13176;51.140;6.290;2022-09-27T08:37:41;99256.25;;;13.48;80.00
25232;BME280;13176;51.140;6.290;2022-09-27T08:40:09;99174.25;;;13.29;79.63
25232;BME280;13176;51.140;6.290;2022-09-27T08:42:58;99226.22;;;13.55;79.24
25232;BME280;13176;51.140;6.290;2022-09-27T08:45:33;99224.44;;;13.72;78.66
25232;BME280;13176;51.140;6.290;2022-09-27T08:48:04;99157.03;;;13.42;79.01
25232;BME280;13176;51.140;6.290;2022-09-27T08:50:37;99245.25;;;14.09;78.19
25232;BME280;13176;51.140;6.290;2022-09-27T08:53:16;99261.00;;;14.09;77.63
25232;BME280;13176;51.140;6.290;2022-09-27T08:55:50;99205.03;;;13.60;77.92
25232;BME280;13176;51.140;6.290;2022-09-27T08:58:33;99231.00;;;13.98;77.69
25232;BME280;13176;51.140;6.290;2022-09-27T09:01:03;99213.19;;;14.21;77.60
25232;BME280;13176;51.140;6.290;2022-09-27T09:03:35;99259.31;;;14.58;76.95
25232;BME280;13176;51.140;6.290;2022-09-27T09:06:24;99232.00;;;14.29;76.61
25232;BME280;13176;51.140;6.290;2022-09-27T09:15:42;99251.81;;;14.35;75.60
25232;BME280;13176;51.140;6.290;2022-09-27T09:21:14;99246.47;;;14.69;74.84
25232;BME280;13176;51.140;6.290;2022-09-27T09:24:02;99253.13;;;14.59;75.59
25232;BME280;13176;51.140;6.290;2022-09-27T09:29:58;99257.22;;;14.32;78.12
25232;BME280;13176;51.140;6.290;2022-09-27T09:35:19;99183.22;;;13.76;80.12
25232;BME280;13176;51.140;6.290;2022-09-27T09:38:00;99249.06;;;14.04;81.38
25232;BME280;13176;51.140;6.290;2022-09-27T09:40:39;99222.38;;;13.79;81.26
25232;BME280;13176;51.140;6.290;2022-09-27T09:46:17;99228.22;;;14.01;81.95
25232;BME280;13176;51.140;6.290;2022-09-27T09:48:54;99228.84;;;14.06;83.17
25232;BME280;13176;51.140;6.290;2022-09-27T09:51:31;99215.28;;;13.81;82.82
25232;BME280;13176;51.140;6.290;2022-09-27T09:54:21;99254.31;;;13.70;82.56
25232;BME280;13176;51.140;6.290;2022-09-27T09:57:05;99262.00;;;13.73;83.38
25232;BME280;13176;51.140;6.290;2022-09-27T09:59:37;99209.41;;;13.42;83.59
25232;BME280;13176;51.140;6.290;2022-09-27T10:02:25;99213.34;;;13.51;84.12
25232;BME280;13176;51.140;6.290;2022-09-27T10:04:54;99204.63;;;13.50;84.27
25232;BME280;13176;51.140;6.290;2022-09-27T10:07:22;99253.94;;;13.94;84.49
25232;BME280;13176;51.140;6.290;2022-09-27T10:09:51;99251.06;;;13.82;84.54
25232;BME280;13176;51.140;6.290;2022-09-27T10:12:18;99205.09;;;13.58;84.54
25232;BME280;13176;51.140;6.290;2022-09-27T10:14:46;99130.19;;;13.20;84.78
25232;BME280;13176;51.140;6.290;2022-09-27T10:17:16;99248.13;;;13.88;84.91
25232;BME280;13176;51.140;6.290;2022-09-27T10:19:45;99206.19;;;13.71;84.46
25232;BME280;13176;51.140;6.290;2022-09-27T10:22:27;99209.88;;;13.67;84.89
25232;BME280;13176;51.140;6.290;2022-09-27T10:25:02;99203.09;;;13.63;85.24
25232;BME280;13176;51.140;6.290;2022-09-27T10:27:40;99235.63;;;13.59;86.43
25232;BME280;13176;51.140;6.290;2022-09-27T10:30:29;99207.56;;;13.44;87.08
25232;BME280;13176;51.140;6.290;2022-09-27T10:32:59;99184.84;;;13.28;86.51
25232;BME280;13176;51.140;6.290;2022-09-27T10:38:24;99228.63;;;13.60;87.39
25232;BME280;13176;51.140;6.290;2022-09-27T10:40:52;99198.56;;;13.50;87.28
25232;BME280;13176;51.140;6.290;2022-09-27T10:46:25;99224.84;;;13.82;86.90
25232;BME280;13176;51.140;6.290;2022-09-27T10:49:31;99181.03;;;13.50;86.79
25232;BME280;13176;51.140;6.290;2022-09-27T10:52:01;99207.59;;;13.78;87.34
25232;BME280;13176;51.140;6.290;2022-09-27T10:54:31;99203.84;;;13.99;87.40
25232;BME280;13176;51.140;6.290;2022-09-27T10:57:04;99190.91;;;13.96;87.38
25232;BME280;13176;51.140;6.290;2022-09-27T10:59:38;99227.53;;;14.14;86.80
25232;BME280;13176;51.140;6.290;2022-09-27T11:02:19;99227.59;;;14.30;86.67
25232;BME280;13176;51.140;6.290;2022-09-27T11:07:28;99231.00;;;14.32;86.80
25232;BME280;13176;51.140;6.290;2022-09-27T11:09:58;99198.75;;;14.13;86.08
25232;BME280;13176;51.140;6.290;2022-09-27T11:12:30;99207.72;;;14.09;84.87
25232;BME280;13176;51.140;6.290;2022-09-27T11:15:00;99201.75;;;14.22;84.78
25232;BME280;13176;51.140;6.290;2022-09-27T11:17:44;99208.03;;;14.20;84.05
25232;BME280;13176;51.140;6.290;2022-09-27T11:20:25;99230.81;;;14.35;84.11
25232;BME280;13176;51.140;6.290;2022-09-27T11:26:35;99216.63;;;14.39;82.73
25232;BME280;13176;51.140;6.290;2022-09-27T11:29:28;99220.03;;;14.56;82.14
25232;BME280;13176;51.140;6.290;2022-09-27T11:32:12;99227.00;;;14.73;83.05
25232;BME280;13176;51.140;6.290;2022-09-27T11:35:03;99200.91;;;14.70;82.85
25232;BME280;13176;51.140;6.290;2022-09-27T11:40:23;99180.72;;;13.90;82.83
25232;BME280;13176;51.140;6.290;2022-09-27T11:43:12;99177.81;;;13.62;84.21
25232;BME280;13176;51.140;6.290;2022-09-27T11:45:57;99223.31;;;13.78;86.01
25232;BME280;13176;51.140;6.290;2022-09-27T11:49:13;99227.59;;;13.96;86.96
25232;BME280;13176;51.140;6.290;2022-09-27T11:57:30;99224.72;;;14.19;87.85
25232;BME280;13176;51.140;6.290;2022-09-27T12:00:22;99220.06;;;13.90;88.10
25232;BME280;13176;51.140;6.290;2022-09-27T12:03:14;99241.63;;;13.61;85.55
25232;BME280;13176;51.140;6.290;2022-09-27T12:06:06;99236.16;;;13.13;85.46
25232;BME280;13176;51.140;6.290;2022-09-27T12:08:55;99242.03;;;13.18;86.74
25232;BME280;13176;51.140;6.290;2022-09-27T12:14:21;99223.22;;;13.10;88.14
25232;BME280;13176;51.140;6.290;2022-09-27T12:16:53;99233.94;;;13.41;88.46
25232;BME280;13176;51.140;6.290;2022-09-27T12:19:29;99213.31;;;13.17;89.21
25232;BME280;13176;51.140;6.290;2022-09-27T12:22:01;99199.81;;;13.24;89.54
25232;BME280;13176;51.140;6.290;2022-09-27T12:24:28;99212.03;;;13.59;90.02
25232;BME280;13176;51.140;6.290;2022-09-27T12:27:07;99204.50;;;13.70;89.85
25232;BME280;13176;51.140;6.290;2022-09-27T12:29:37;99232.19;;;13.92;89.30
25232;BME280;13176;51.140;6.290;2022-09-27T12:32:21;99227.63;;;13.79;89.30
25232;BME280;13176;51.140;6.290;2022-09-27T12:35:09;99241.19;;;13.70;88.96
25232;BME280;13176;51.140;6.290;2022-09-27T12:38:03;99218.22;;;13.75;88.97
25232;BME280;13176;51.140;6.290;2022-09-27T12:40:34;99209.59;;;13.73;89.12
25232;BME280;13176;51.140;6.290;2022-09-27T12:43:06;99228.41;;;13.81;87.84
25232;BME280;13176;51.140;6.290;2022-09-27T12:51:16;99200.00;;;13.89;88.29
25232;BME280;13176;51.140;6.290;2022-09-27T13:05:43;99227.91;;;13.90;87.40
25232;BME280;13176;51.140;6.290;2022-09-27T13:13:20;99228.06;;;13.87;87.42
25232;BME280;13176;51.140;6.290;2022-09-27T13:15:49;99219.44;;;13.85;87.21
25232;BME280;13176;51.140;6.290;2022-09-27T13:21:02;99215.41;;;14.12;86.70
25232;BME280;13176;51.140;6.290;2022-09-27T13:25:58;99226.78;;;14.45;86.01
25232;BME280;13176;51.140;6.290;2022-09-27T13:31:03;99187.97;;;14.19;83.83
25232;BME280;13176;51.140;6.290;2022-09-27T13:33:40;99230.50;;;14.41;83.68
25232;BME280;13176;51.140;6.290;2022-09-27T13:36:28;99208.25;;;14.48;83.99
25232;BME280;13176;51.140;6.290;2022-09-27T13:46:48;99230.66;;;14.38;79.91
25232;BME280;13176;51.140;6.290;2022-09-27T13:49:25;99204.25;;;14.41;80.65
25232;BME280;13176;51.140;6.290;2022-09-27T13:52:02;99221.44;;;14.46;81.20
25232;BME280;13176;51.140;6.290;2022-09-27T13:57:00;99183.31;;;14.24;81.16
25232;BME280;13176;51.140;6.290;2022-09-27T13:59:45;99221.88;;;14.39;81.25
25232;BME280;13176;51.140;6.290;2022-09-27T14:05:31;99228.34;;;14.49;80.18
25232;BME280;13176;51.140;6.290;2022-09-27T14:07:59;99212.59;;;14.49;81.10
25232;BME280;13176;51.140;6.290;2022-09-27T14:10:28;99223.69;;;14.54;80.65
25232;BME280;13176;51.140;6.290;2022-09-27T14:12:56;99193.38;;;14.16;79.50
25232;BME280;13176;51.140;6.290;2022-09-27T14:15:27;99228.97;;;14.37;79.37
25232;BME280;13176;51.140;6.290;2022-09-27T14:17:55;99214.94;;;14.38;80.34
25232;BME280;13176;51.140;6.290;2022-09-27T14:20:36;99221.06;;;14.54;80.84
25232;BME280;13176;51.140;6.290;2022-09-27T14:23:04;99149.81;;;13.96;80.38
25232;BME280;13176;51.140;6.290;2022-09-27T14:25:31;99175.47;;;14.07;81.18
25232;BME280;13176;51.140;6.290;2022-09-27T14:27:57;99226.31;;;14.54;80.97
25232;BME280;13176;51.140;6.290;2022-09-27T14:30:27;99193.78;;;14.41;80.50
25232;BME280;13176;51.140;6.290;2022-09-27T14:32:55;99237.28;;;14.45;79.43
25232;BME280;13176;51.140;6.290;2022-09-27T14:35:28;99171.72;;;14.28;80.73
25232;BME280;13176;51.140;6.290;2022-09-27T14:38:19;99162.50;;;14.04;80.80
25232;BME280;13176;51.140;6.290;2022-09-27T14:41:04;99143.53;;;13.99;79.91
25232;BME280;13176;51.140;6.290;2022-09-27T14:43:33;99160.50;;;14.09;80.35
25232;BME280;13176;51.140;6.290;2022-09-27T14:46:05;99148.03;;;14.14;81.02
25232;BME280;13176;51.140;6.290;2022-09-27T14:48:37;99159.69;;;14.24;79.37
25232;BME280;13176;51.140;6.290;2022-09-27T14:51:16;99234.59;;;14.62;79.34
25232;BME280;13176;51.140;6.290;2022-09-27T14:53:50;99245.00;;;14.48;79.03
25232;BME280;13176;51.140;6.290;2022-09-27T14:56:29;99185.19;;;13.88;76.19
25232;BME280;13176;51.140;6.290;2022-09-27T14:59:11;99173.50;;;13.61;75.08
25232;BME280;13176;51.140;6.290;2022-09-27T15:01:47;99160.84;;;13.18;76.46
25232;BME280;13176;51.140;6.290;2022-09-27T15:04:15;99197.41;;;13.38;77.26
25232;BME280;13176;51.140;6.290;2022-09-27T15:06:42;99223.06;;;13.65;78.03
25232;BME280;13176;51.140;6.290;2022-09-27T15:09:12;99193.63;;;13.61;79.06
25232;BME280;13176;51.140;6.290;2022-09-27T15:11:40;99191.06;;;13.59;80.47
25232;BME280;13176;51.140;6.290;2022-09-27T15:14:13;99240.28;;;13.71;80.23
25232;BME280;13176;51.140;6.290;2022-09-27T15:16:40;99229.91;;;13.85;81.05
25232;BME280;13176;51.140;6.290;2022-09-27T15:19:28;99225.13;;;13.93;81.12
25232;BME280;13176;51.140;6.290;2022-09-27T15:21:55;99201.94;;;13.68;81.04
25232;BME280;13176;51.140;6.290;2022-09-27T15:24:45;99241.03;;;13.90;81.97
25232;BME280;13176;51.140;6.290;2022-09-27T15:27:17;99207.72;;;13.92;81.39